Terminal Aerodrome Forecast
Issued by NWS Charleston, WV

Home | Current Version | Previous Version | Text Only | Print | Product List | Glossary On
Versions: 1 2 3 4 5 6 7 8 9 10 11 12 13 14 15 16 17 18 19 20 21 22 23 24
995
FTUS41 KRLX 260907 AAA
TAFCRW
TAF AMD
KCRW 260907Z 2609/2706 25010G18KT P6SM OVC015
     FM261500 26009G16KT P6SM BKN035
     FM261900 27009G18KT P6SM SCT090
     FM262300 26005KT P6SM SCT200=

USA.gov is the U.S. government's official web portal to all federal, state and local government web resources and services.